createdAt,value
2023-05-19T00:01:20.343Z,10.57
2023-05-19T00:03:57.477Z,6.72
2023-05-19T00:06:26.822Z,6.88
2023-05-19T00:08:57.785Z,8.32
2023-05-19T00:11:26.906Z,8.82
2023-05-19T00:13:59.239Z,8.98
2023-05-19T00:16:28.545Z,8.60
2023-05-19T00:18:57.151Z,8.50
2023-05-19T00:21:24.270Z,8.25
2023-05-19T00:23:51.406Z,9.65
2023-05-19T00:26:18.723Z,8.77
2023-05-19T00:28:55.449Z,9.05
2023-05-19T00:31:22.516Z,8.10
2023-05-19T00:33:49.596Z,10.80
2023-05-19T00:36:16.696Z,12.68
2023-05-19T00:38:43.812Z,8.38
2023-05-19T00:41:11.030Z,10.77
2023-05-19T00:43:38.017Z,8.38
2023-05-19T00:46:05.414Z,7.25
2023-05-19T00:48:32.385Z,9.93
2023-05-19T00:51:04.921Z,9.55
2023-05-19T00:53:35.479Z,9.18
2023-05-19T00:56:03.472Z,9.43
2023-05-19T00:58:32.608Z,9.25
2023-05-19T01:01:04.482Z,8.23
2023-05-19T01:03:35.616Z,9.05
2023-05-19T01:06:07.200Z,10.90
2023-05-19T01:08:36.290Z,12.07
2023-05-19T01:11:05.043Z,12.68
2023-05-19T01:13:33.083Z,14.90
2023-05-19T01:16:15.209Z,12.30
2023-05-19T01:19:14.068Z,12.95
2023-05-19T01:21:47.915Z,13.38
2023-05-19T01:24:50.059Z,9.93
2023-05-19T01:27:50.817Z,10.25
2023-05-19T01:30:41.774Z,9.95
2023-05-19T01:33:14.228Z,12.93
2023-05-19T01:35:43.530Z,12.13
2023-05-19T01:38:11.939Z,12.25
2023-05-19T01:40:42.270Z,9.70
2023-05-19T01:43:12.518Z,10.98
2023-05-19T01:45:40.534Z,12.20
2023-05-19T01:48:10.605Z,14.93
2023-05-19T01:50:40.181Z,11.52
2023-05-19T01:53:07.873Z,11.80
2023-05-19T01:55:48.140Z,10.93
2023-05-19T01:58:31.087Z,12.32
2023-05-19T02:01:11.658Z,12.32
2023-05-19T02:04:03.543Z,16.33
2023-05-19T02:06:57.330Z,13.60
2023-05-19T02:09:41.017Z,13.30
2023-05-19T02:12:11.902Z,12.32
2023-05-19T02:14:52.890Z,13.38
2023-05-19T02:17:20.882Z,13.02
2023-05-19T02:19:48.032Z,12.60
2023-05-19T02:22:15.311Z,12.68
2023-05-19T02:24:42.543Z,13.65
2023-05-19T02:27:09.577Z,14.18
2023-05-19T02:29:36.553Z,13.70
2023-05-19T02:32:03.682Z,15.43
2023-05-19T02:34:30.748Z,14.98
2023-05-19T02:36:57.779Z,13.85
2023-05-19T02:39:24.810Z,15.30
2023-05-19T02:41:51.746Z,14.60
2023-05-19T02:44:18.750Z,13.32
2023-05-19T02:46:46.167Z,15.07
2023-05-19T02:49:13.240Z,15.23
2023-05-19T02:51:40.361Z,16.67
2023-05-19T02:54:07.553Z,15.70
2023-05-19T02:56:34.548Z,18.63
2023-05-19T02:59:01.667Z,17.80
2023-05-19T03:01:28.774Z,16.17
2023-05-19T03:03:55.794Z,15.88
2023-05-19T03:06:23.501Z,14.38
2023-05-19T03:08:51.060Z,18.38
2023-05-19T03:11:18.218Z,15.80
2023-05-19T03:13:45.274Z,15.77
2023-05-19T03:16:12.654Z,17.65
2023-05-19T03:18:39.863Z,17.17
2023-05-19T03:21:06.865Z,16.10
2023-05-19T03:23:33.823Z,16.10
2023-05-19T03:26:01.261Z,17.20
2023-05-19T03:28:28.495Z,17.15
2023-05-19T03:30:55.527Z,17.08
2023-05-19T03:33:29.885Z,17.20
2023-05-19T03:35:57.984Z,17.70
2023-05-19T03:38:26.968Z,20.25
2023-05-19T03:40:57.904Z,17.77
2023-05-19T03:43:25.082Z,20.67
2023-05-19T03:45:58.244Z,17.95
2023-05-19T03:48:51.846Z,20.23
2023-05-19T03:51:37.342Z,18.52
2023-05-19T03:54:17.728Z,19.08
2023-05-19T03:56:44.767Z,20.08
2023-05-19T03:59:12.326Z,20.98
2023-05-19T04:01:39.317Z,17.75
2023-05-19T04:04:06.340Z,21.63
2023-05-19T04:06:33.990Z,18.77
2023-05-19T04:09:02.476Z,19.52
2023-05-19T04:11:29.466Z,18.35
2023-05-19T04:13:56.541Z,20.20
2023-05-19T04:16:23.711Z,19.15
2023-05-19T04:18:50.926Z,18.45
2023-05-19T04:21:17.900Z,17.95
2023-05-19T04:23:44.865Z,19.30
2023-05-19T04:26:12.329Z,17.48
2023-05-19T04:28:42.328Z,18.20
2023-05-19T04:31:11.063Z,18.23
2023-05-19T04:33:39.320Z,19.92
2023-05-19T04:36:11.492Z,14.23
2023-05-19T04:38:40.758Z,14.95
2023-05-19T04:41:10.230Z,17.90
2023-05-19T04:43:41.895Z,13.20
2023-05-19T04:46:13.218Z,13.60
2023-05-19T04:48:41.790Z,14.05
2023-05-19T04:51:08.869Z,13.85
2023-05-19T04:53:36.654Z,15.20
2023-05-19T04:56:06.433Z,12.05
2023-05-19T04:58:34.120Z,11.45
2023-05-19T05:01:01.156Z,13.98
2023-05-19T05:03:31.077Z,13.45
2023-05-19T05:05:58.723Z,13.25
2023-05-19T05:08:25.863Z,12.63
2023-05-19T05:10:54.069Z,13.57
2023-05-19T05:13:23.946Z,11.63
2023-05-19T05:15:52.285Z,13.35
2023-05-19T05:18:19.793Z,10.68
2023-05-19T05:20:48.213Z,12.00
2023-05-19T05:23:16.687Z,10.50
2023-05-19T05:25:47.429Z,11.25
2023-05-19T05:28:16.116Z,13.05
2023-05-19T05:30:44.989Z,11.05
2023-05-19T05:33:14.120Z,10.40
2023-05-19T05:35:42.064Z,10.82
2023-05-19T05:38:11.655Z,11.55
2023-05-19T05:40:39.049Z,13.05
2023-05-19T05:43:06.361Z,14.57
2023-05-19T05:45:37.820Z,10.30
2023-05-19T05:48:06.139Z,10.80
2023-05-19T05:50:34.415Z,14.55
2023-05-19T05:53:06.542Z,11.65
2023-05-19T05:55:35.474Z,10.05
2023-05-19T05:58:03.657Z,11.30
2023-05-19T06:00:31.101Z,11.32
2023-05-19T06:02:59.218Z,12.13
2023-05-19T06:05:26.837Z,14.65
2023-05-19T06:07:54.678Z,13.80
2023-05-19T06:10:25.518Z,17.10
2023-05-19T06:12:54.815Z,12.05
2023-05-19T06:15:23.480Z,11.80
2023-05-19T06:18:16.671Z,16.50
2023-05-19T06:20:43.862Z,12.85
2023-05-19T06:23:11.054Z,13.98
2023-05-19T06:25:38.098Z,9.40
2023-05-19T06:28:06.045Z,11.23
2023-05-19T06:30:33.427Z,11.15
2023-05-19T06:33:14.902Z,12.27
2023-05-19T06:35:42.857Z,12.60
2023-05-19T06:38:10.229Z,12.07
2023-05-19T06:40:37.296Z,9.90
2023-05-19T06:43:04.951Z,10.75
2023-05-19T06:45:52.943Z,13.48
2023-05-19T06:48:19.909Z,11.48
2023-05-19T06:50:47.924Z,13.45
2023-05-19T06:53:16.705Z,10.65
2023-05-19T06:55:54.743Z,11.52
2023-05-19T06:58:27.198Z,10.77
2023-05-19T07:00:54.565Z,11.27
2023-05-19T07:03:22.051Z,10.70
2023-05-19T07:05:49.378Z,11.25
2023-05-19T07:08:16.407Z,12.48
2023-05-19T07:10:43.735Z,9.77
2023-05-19T07:13:13.610Z,13.55
2023-05-19T07:15:41.477Z,8.73
2023-05-19T07:18:08.652Z,11.07
2023-05-19T07:20:36.270Z,12.80
2023-05-19T07:23:05.382Z,16.45
2023-05-19T07:25:33.306Z,18.88
2023-05-19T07:28:00.643Z,29.52
2023-05-19T07:30:28.552Z,29.27
2023-05-19T07:32:56.023Z,18.27
2023-05-19T07:35:23.171Z,32.65
2023-05-19T07:37:51.667Z,17.60
2023-05-19T07:40:19.096Z,11.45
2023-05-19T07:42:46.079Z,13.45
2023-05-19T07:45:13.068Z,14.82
2023-05-19T07:47:40.082Z,14.38
2023-05-19T07:50:07.663Z,14.20
2023-05-19T07:52:34.695Z,26.75
2023-05-19T07:55:01.714Z,17.80
2023-05-19T07:57:28.694Z,12.50
2023-05-19T07:59:55.727Z,13.18
2023-05-19T08:02:22.861Z,10.60
2023-05-19T08:04:49.983Z,10.30
2023-05-19T08:07:17.075Z,10.80
2023-05-19T08:09:44.112Z,12.52
2023-05-19T08:12:11.404Z,12.45
2023-05-19T08:14:38.528Z,12.57
2023-05-19T08:17:05.590Z,18.27
2023-05-19T08:19:32.591Z,9.45
2023-05-19T08:22:01.217Z,12.10
2023-05-19T08:24:32.793Z,12.50
2023-05-19T08:27:00.016Z,11.15
2023-05-19T08:29:26.966Z,10.65
2023-05-19T08:31:54.185Z,10.60
2023-05-19T08:34:22.283Z,9.75
2023-05-19T08:36:49.470Z,9.10
2023-05-19T08:39:18.250Z,11.98
2023-05-19T08:41:45.276Z,11.13
2023-05-19T08:44:12.331Z,10.85
2023-05-19T08:46:39.478Z,9.45
2023-05-19T08:49:14.516Z,11.65
2023-05-19T08:51:50.566Z,11.73
2023-05-19T08:54:20.750Z,10.65
2023-05-19T08:56:48.410Z,11.00
2023-05-19T08:59:15.922Z,11.32
2023-05-19T09:01:46.566Z,10.15
2023-05-19T09:04:14.300Z,10.40
2023-05-19T09:06:42.260Z,11.93
2023-05-19T09:09:09.380Z,10.25
2023-05-19T09:11:37.713Z,9.13
2023-05-19T09:14:05.753Z,11.02
2023-05-19T09:16:34.106Z,12.45
2023-05-19T09:19:01.456Z,11.52
2023-05-19T09:21:32.381Z,11.93
2023-05-19T09:24:05.586Z,11.02
2023-05-19T09:26:43.013Z,10.07
2023-05-19T09:29:14.167Z,12.02
2023-05-19T09:31:51.805Z,12.88
2023-05-19T09:34:19.455Z,13.20
2023-05-19T09:36:49.680Z,11.57
2023-05-19T09:39:17.817Z,11.20
2023-05-19T09:41:45.508Z,10.32
2023-05-19T09:44:29.843Z,15.88
2023-05-19T09:46:58.363Z,23.27
2023-05-19T09:49:29.694Z,9.80
2023-05-19T09:52:02.295Z,11.50
2023-05-19T09:54:32.609Z,15.45
2023-05-19T09:57:05.194Z,27.17
2023-05-19T09:59:33.990Z,9.93
2023-05-19T10:02:02.317Z,11.27
2023-05-19T10:04:31.141Z,9.73
2023-05-19T10:07:05.699Z,11.68
2023-05-19T10:09:34.075Z,11.07
2023-05-19T10:12:02.390Z,13.90
2023-05-19T10:14:30.212Z,12.48
2023-05-19T10:16:59.502Z,11.73
2023-05-19T10:19:28.352Z,12.02
2023-05-19T10:21:56.241Z,12.82
2023-05-19T10:24:23.342Z,11.70
2023-05-19T10:26:56.705Z,11.27
2023-05-19T10:29:28.716Z,11.65
2023-05-19T10:31:59.468Z,9.85
2023-05-19T10:34:57.874Z,12.63
2023-05-19T10:37:43.027Z,10.80
2023-05-19T10:40:17.068Z,10.25
2023-05-19T10:43:14.638Z,12.52
2023-05-19T10:45:49.195Z,14.02
2023-05-19T10:48:17.078Z,13.00
2023-05-19T10:50:48.219Z,12.85
2023-05-19T10:53:22.077Z,11.57
2023-05-19T10:55:56.180Z,13.35
2023-05-19T10:58:45.186Z,11.75
2023-05-19T11:01:19.765Z,13.45
2023-05-19T11:03:54.490Z,12.67
2023-05-19T11:06:28.444Z,13.23
2023-05-19T11:09:15.888Z,13.48
2023-05-19T11:11:54.964Z,14.45
2023-05-19T11:14:27.481Z,15.38
2023-05-19T11:16:57.768Z,27.30
2023-05-19T11:19:30.469Z,28.50
2023-05-19T11:22:07.929Z,13.50
2023-05-19T11:24:37.441Z,14.30
2023-05-19T11:27:40.037Z,16.02
2023-05-19T11:30:08.197Z,13.20
2023-05-19T11:32:39.503Z,13.73
2023-05-19T11:35:07.837Z,14.20
2023-05-19T11:37:35.919Z,13.48
2023-05-19T11:40:07.565Z,13.23
2023-05-19T11:42:36.194Z,12.40
2023-05-19T11:45:04.397Z,14.05
2023-05-19T11:47:42.101Z,15.38
2023-05-19T11:50:14.574Z,12.80
2023-05-19T11:52:45.196Z,13.88
2023-05-19T11:55:16.599Z,15.45
2023-05-19T12:00:37.215Z,17.50
2023-05-19T12:03:04.742Z,13.15
2023-05-19T12:05:34.868Z,13.93
2023-05-19T12:08:03.410Z,14.43
2023-05-19T12:10:31.475Z,15.10
2023-05-19T12:12:59.843Z,16.08
2023-05-19T12:15:26.906Z,15.15
2023-05-19T12:17:58.911Z,13.63
2023-05-19T12:20:27.324Z,14.80
2023-05-19T12:22:58.023Z,15.07
2023-05-19T12:25:25.361Z,15.07
2023-05-19T12:27:57.502Z,16.83
2023-05-19T12:30:27.930Z,14.30
2023-05-19T12:32:58.415Z,12.73
2023-05-19T12:35:29.941Z,15.07
2023-05-19T12:37:57.727Z,13.43
2023-05-19T12:40:25.859Z,13.07
2023-05-19T12:42:58.825Z,14.82
2023-05-19T12:45:28.137Z,16.00
2023-05-19T12:47:56.185Z,16.50
2023-05-19T12:50:31.477Z,14.23
2023-05-19T12:52:59.943Z,14.55
2023-05-19T12:55:27.345Z,14.82
2023-05-19T12:57:57.249Z,14.07
2023-05-19T13:00:27.754Z,15.07
2023-05-19T13:03:10.004Z,17.77
2023-05-19T13:05:43.664Z,18.30
2023-05-19T13:08:12.750Z,17.90
2023-05-19T13:10:40.847Z,14.55
2023-05-19T13:13:08.897Z,15.38
2023-05-19T13:15:40.749Z,14.75
2023-05-19T13:18:09.435Z,14.63
2023-05-19T13:20:37.900Z,17.40
2023-05-19T13:23:05.802Z,14.68
2023-05-19T13:25:36.560Z,17.73
2023-05-19T13:28:05.797Z,15.88
2023-05-19T13:30:34.386Z,15.50
2023-05-19T13:33:02.024Z,15.88
2023-05-19T13:35:29.177Z,16.38
2023-05-19T13:37:56.238Z,15.30
2023-05-19T13:40:24.208Z,18.15
2023-05-19T13:42:51.326Z,19.13
2023-05-19T13:45:18.439Z,17.63
2023-05-19T13:47:45.526Z,15.52
2023-05-19T13:50:12.743Z,15.23
2023-05-19T13:52:39.857Z,15.60
2023-05-19T13:55:07.681Z,17.23
2023-05-19T13:57:35.366Z,16.48
2023-05-19T14:00:04.130Z,15.15
2023-05-19T14:02:40.757Z,17.27
2023-05-19T14:05:08.628Z,17.95
2023-05-19T14:07:36.008Z,16.55
2023-05-19T14:10:05.574Z,15.80
2023-05-19T14:12:45.097Z,18.45
2023-05-19T14:15:20.615Z,19.77
2023-05-19T14:17:49.063Z,17.67
2023-05-19T14:20:16.330Z,19.23
2023-05-19T14:22:43.310Z,17.58
2023-05-19T14:25:10.651Z,18.92
2023-05-19T14:27:39.918Z,16.35
2023-05-19T14:30:08.181Z,18.00
2023-05-19T14:32:36.017Z,29.80
2023-05-19T14:35:03.359Z,21.35
2023-05-19T14:37:31.918Z,17.85
2023-05-19T14:39:59.386Z,16.85
2023-05-19T14:42:26.436Z,17.63
2023-05-19T14:44:53.661Z,16.10
2023-05-19T14:47:20.653Z,16.27
2023-05-19T14:49:47.727Z,16.70
2023-05-19T14:52:14.761Z,17.70
2023-05-19T14:54:41.832Z,19.33
2023-05-19T14:57:09.002Z,18.83
2023-05-19T14:59:39.184Z,19.58
2023-05-19T15:02:06.336Z,18.52
2023-05-19T15:04:33.330Z,15.38
2023-05-19T15:09:30.204Z,14.73
2023-05-19T15:11:57.315Z,15.70
2023-05-19T15:14:24.366Z,15.70
2023-05-19T15:16:51.472Z,14.35
2023-05-19T15:19:18.688Z,14.77
2023-05-19T15:21:45.777Z,13.18
2023-05-19T15:24:12.814Z,16.27
2023-05-19T15:26:39.808Z,13.80
2023-05-19T15:29:06.793Z,13.95
2023-05-19T15:31:35.755Z,14.93
2023-05-19T15:34:04.434Z,14.13
2023-05-19T15:36:31.536Z,15.32
2023-05-19T15:38:58.649Z,13.00
2023-05-19T15:41:25.925Z,12.02
2023-05-19T15:43:53.659Z,12.38
2023-05-19T15:46:20.784Z,13.32
2023-05-19T15:48:47.850Z,12.45
2023-05-19T15:51:14.946Z,12.30
2023-05-19T15:53:42.025Z,13.05
2023-05-19T15:56:09.047Z,11.40
2023-05-19T15:58:36.016Z,11.90
2023-05-19T16:01:03.383Z,10.82
2023-05-19T16:03:30.767Z,12.50
2023-05-19T16:05:58.089Z,13.45
2023-05-19T16:08:25.734Z,17.90
2023-05-19T16:10:53.736Z,19.23
2023-05-19T16:13:20.966Z,13.07
2023-05-19T16:15:48.438Z,13.27
2023-05-19T16:18:18.638Z,16.00
2023-05-19T16:20:45.661Z,12.73
2023-05-19T16:23:12.609Z,15.20
2023-05-19T16:25:39.744Z,12.57
2023-05-19T16:28:06.755Z,12.38
2023-05-19T16:30:34.020Z,14.65
2023-05-19T16:33:01.622Z,13.00
2023-05-19T16:35:29.548Z,13.35
2023-05-19T16:37:56.734Z,13.68
2023-05-19T16:40:23.896Z,12.68
2023-05-19T16:42:53.575Z,11.10
2023-05-19T16:45:20.869Z,12.73
2023-05-19T16:47:48.074Z,12.70
2023-05-19T16:50:15.297Z,12.75
2023-05-19T16:52:42.456Z,13.73
2023-05-19T16:55:09.773Z,13.82
2023-05-19T16:57:36.817Z,13.55
2023-05-19T17:00:04.129Z,15.05
2023-05-19T17:02:31.909Z,13.85
2023-05-19T17:04:59.079Z,17.60
2023-05-19T17:07:27.877Z,16.42
2023-05-19T17:09:56.072Z,17.90
2023-05-19T17:12:23.294Z,18.95
2023-05-19T17:14:52.058Z,21.02
2023-05-19T17:17:19.161Z,18.80
2023-05-19T17:19:46.802Z,15.88
2023-05-19T17:22:13.993Z,17.48
2023-05-19T17:24:41.361Z,17.55
2023-05-19T17:27:08.573Z,15.98
2023-05-19T17:29:36.864Z,18.23
2023-05-19T17:32:04.498Z,17.52
2023-05-19T17:34:31.492Z,14.82
2023-05-19T17:36:58.451Z,15.05
2023-05-19T17:39:25.577Z,15.68
2023-05-19T17:41:52.674Z,14.85
2023-05-19T17:44:19.758Z,15.60
2023-05-19T17:46:46.781Z,16.95
2023-05-19T17:49:14.304Z,15.50
2023-05-19T17:51:41.699Z,16.17
2023-05-19T17:54:08.965Z,17.33
2023-05-19T17:56:40.819Z,15.85
2023-05-19T17:59:08.290Z,14.98
2023-05-19T18:01:35.708Z,14.05
2023-05-19T18:04:03.888Z,14.73
2023-05-19T18:06:32.262Z,13.68
2023-05-19T18:09:01.239Z,15.73
2023-05-19T18:11:28.656Z,14.55
2023-05-19T18:13:56.848Z,14.00
2023-05-19T18:16:23.971Z,14.48
2023-05-19T18:18:51.206Z,16.55
2023-05-19T18:21:18.529Z,15.52
2023-05-19T18:23:46.387Z,15.57
2023-05-19T18:26:13.579Z,13.95
2023-05-19T18:28:41.505Z,15.05
2023-05-19T18:31:17.416Z,15.13
2023-05-19T18:33:45.752Z,14.30
2023-05-19T18:36:15.372Z,18.65
2023-05-19T18:38:42.456Z,16.13
2023-05-19T18:41:09.533Z,12.90
2023-05-19T18:43:36.511Z,13.93
2023-05-19T18:46:03.470Z,14.82
2023-05-19T18:48:31.317Z,15.82
2023-05-19T18:50:58.253Z,16.50
2023-05-19T18:53:25.665Z,15.50
2023-05-19T18:55:52.573Z,15.82
2023-05-19T18:58:19.581Z,15.88
2023-05-19T19:00:47.264Z,17.35
2023-05-19T19:03:14.993Z,17.05
2023-05-19T19:05:43.214Z,16.73
2023-05-19T19:08:10.158Z,17.85
2023-05-19T19:10:40.662Z,16.77
2023-05-19T19:13:07.847Z,16.63
2023-05-19T19:15:34.884Z,17.00
2023-05-19T19:18:02.213Z,16.58
2023-05-19T19:20:29.379Z,17.10
2023-05-19T19:22:56.905Z,16.77
2023-05-19T19:25:24.006Z,18.15
2023-05-19T19:27:51.244Z,16.23
2023-05-19T19:30:18.422Z,18.30
2023-05-19T19:32:45.579Z,18.73
2023-05-19T19:35:12.689Z,18.63
2023-05-19T19:37:39.643Z,21.30
2023-05-19T19:40:07.182Z,19.17
2023-05-19T19:42:34.495Z,18.70
2023-05-19T19:45:01.692Z,20.27
2023-05-19T19:47:29.184Z,18.45
2023-05-19T19:49:56.443Z,18.55
2023-05-19T19:52:23.649Z,19.05
2023-05-19T19:54:51.173Z,19.17
2023-05-19T19:57:18.443Z,22.15
2023-05-19T19:59:45.664Z,20.73
2023-05-19T20:02:12.730Z,22.23
2023-05-19T20:04:39.905Z,20.98
2023-05-19T20:07:06.975Z,22.08
2023-05-19T20:09:34.035Z,21.83
2023-05-19T20:12:01.196Z,23.33
2023-05-19T20:14:28.244Z,21.58
2023-05-19T20:16:55.233Z,25.05
2023-05-19T20:19:27.888Z,21.83
2023-05-19T20:21:55.015Z,24.52
2023-05-19T20:24:22.060Z,22.40
2023-05-19T20:26:49.128Z,25.15
2023-05-19T20:29:16.800Z,22.35
2023-05-19T20:31:45.411Z,23.23
2023-05-19T20:34:12.481Z,18.55
2023-05-19T20:36:39.459Z,18.63
2023-05-19T20:39:07.061Z,19.90
2023-05-19T20:41:34.033Z,19.17
2023-05-19T20:44:01.196Z,20.10
2023-05-19T20:46:28.463Z,23.60
2023-05-19T20:48:55.649Z,22.02
2023-05-19T20:51:25.116Z,23.17
2023-05-19T20:53:52.209Z,22.08
2023-05-19T20:56:24.747Z,21.75
2023-05-19T20:58:51.700Z,25.02
2023-05-19T21:01:18.733Z,23.25
2023-05-19T21:03:45.776Z,23.30
2023-05-19T21:06:12.851Z,23.67
2023-05-19T21:08:39.760Z,23.60
2023-05-19T21:11:06.785Z,25.90
2023-05-19T21:13:33.951Z,35.97
2023-05-19T21:16:00.982Z,48.00
2023-05-19T21:18:28.715Z,27.13
2023-05-19T21:20:55.658Z,28.45
2023-05-19T21:23:22.707Z,21.77
2023-05-19T21:25:50.614Z,25.55
2023-05-19T21:28:17.603Z,24.50
2023-05-19T21:30:49.197Z,25.80
2023-05-19T21:33:16.636Z,24.42
2023-05-19T21:35:45.547Z,24.02
2023-05-19T21:38:23.304Z,22.80
2023-05-19T21:40:51.824Z,24.60
2023-05-19T21:43:22.498Z,24.67
2023-05-19T21:45:49.535Z,25.02
2023-05-19T21:48:16.683Z,23.52
2023-05-19T21:50:43.762Z,24.30
2023-05-19T21:53:10.817Z,23.00
2023-05-19T21:55:37.873Z,25.20
2023-05-19T21:58:04.930Z,24.73
2023-05-19T22:00:32.103Z,22.33
2023-05-19T22:02:59.419Z,22.45
2023-05-19T22:05:26.579Z,22.60
2023-05-19T22:07:53.680Z,20.73
2023-05-19T22:10:20.841Z,22.65
2023-05-19T22:12:47.807Z,19.38
2023-05-19T22:15:15.920Z,21.30
2023-05-19T22:17:43.063Z,20.90
2023-05-19T22:20:10.568Z,21.92
2023-05-19T22:22:37.513Z,21.77
2023-05-19T22:25:05.001Z,20.63
2023-05-19T22:27:32.086Z,17.88
2023-05-19T22:29:59.723Z,18.02
2023-05-19T22:32:26.827Z,21.23
2023-05-19T22:34:53.984Z,19.88
2023-05-19T22:37:22.895Z,16.55
2023-05-19T22:39:49.869Z,16.65
2023-05-19T22:42:16.811Z,16.67
2023-05-19T22:44:43.955Z,15.23
2023-05-19T22:47:13.622Z,14.52
2023-05-19T22:49:41.546Z,16.77
2023-05-19T22:52:10.452Z,15.90
2023-05-19T22:54:38.061Z,13.82
2023-05-19T22:57:05.495Z,14.38
2023-05-19T22:59:32.595Z,14.40
2023-05-19T23:01:59.530Z,14.82
2023-05-19T23:04:26.538Z,15.35
2023-05-19T23:06:53.566Z,15.05
2023-05-19T23:09:21.832Z,15.77
2023-05-19T23:11:48.888Z,14.18
2023-05-19T23:14:15.956Z,13.85
2023-05-19T23:16:43.002Z,15.38
2023-05-19T23:19:10.101Z,13.23
2023-05-19T23:21:37.068Z,16.10
2023-05-19T23:24:04.878Z,16.65
2023-05-19T23:26:31.855Z,16.80
2023-05-19T23:28:58.838Z,16.83
2023-05-19T23:31:25.986Z,14.82
2023-05-19T23:33:54.174Z,14.40
2023-05-19T23:36:21.223Z,16.52
2023-05-19T23:38:48.277Z,14.80
2023-05-19T23:41:15.229Z,14.95
2023-05-19T23:43:42.163Z,14.90
2023-05-19T23:46:09.260Z,14.18
2023-05-19T23:48:36.678Z,15.38
2023-05-19T23:51:03.759Z,11.90
2023-05-19T23:53:30.782Z,14.80
2023-05-19T23:55:58.758Z,14.88
2023-05-19T23:58:26.025Z,14.60
